createdAt,value
2023-03-26T00:00:35.187Z,100239.20
2023-03-26T00:03:12.507Z,100241.40
2023-03-26T00:05:50.298Z,100243.60
2023-03-26T00:08:26.846Z,100245.00
2023-03-26T00:11:05.012Z,100244.60
2023-03-26T00:13:41.794Z,100237.40
2023-03-26T00:16:19.998Z,100244.80
2023-03-26T00:18:56.473Z,100254.20
2023-03-26T00:21:35.373Z,100261.20
2023-03-26T00:24:16.439Z,100259.00
2023-03-26T00:26:53.691Z,100253.00
2023-03-26T00:29:33.492Z,100253.80
2023-03-26T00:32:10.737Z,100263.00
2023-03-26T00:34:47.978Z,100270.40
2023-03-26T00:37:26.503Z,100264.00
2023-03-26T00:40:05.322Z,100267.00
2023-03-26T00:42:43.395Z,100257.80
2023-03-26T00:45:21.500Z,100260.80
2023-03-26T00:48:02.686Z,100263.80
2023-03-26T00:50:38.652Z,100262.00
2023-03-26T00:53:14.772Z,100259.40
2023-03-26T00:55:52.961Z,100253.80
2023-03-26T00:58:30.354Z,100255.80
2023-03-26T01:01:13.965Z,100250.60
2023-03-26T01:04:06.914Z,100240.40
2023-03-26T01:06:45.663Z,100236.60
2023-03-26T01:09:24.516Z,100229.40
2023-03-26T01:12:02.212Z,100221.80
2023-03-26T01:14:38.450Z,100212.40
2023-03-26T01:17:15.167Z,100207.20
2023-03-26T01:20:01.584Z,100204.20
2023-03-26T01:22:39.541Z,100198.60
2023-03-26T01:25:16.977Z,100194.20
2023-03-26T22:34:28.494Z,99099.40
2023-03-26T22:37:05.729Z,99100.80
2023-03-26T22:39:44.842Z,99099.60
2023-03-26T22:42:21.429Z,99093.60
2023-03-26T22:44:58.356Z,99085.40
2023-03-26T22:47:35.793Z,99087.40
2023-03-26T22:50:15.287Z,99088.80
2023-03-26T22:52:54.471Z,99083.80
2023-03-26T22:55:30.976Z,99080.20
2023-03-26T22:58:07.553Z,99080.80
2023-03-26T23:00:43.651Z,99078.80
2023-03-26T23:03:20.026Z,99077.40
2023-03-26T23:06:14.583Z,99082.20
2023-03-26T23:08:50.984Z,99081.40
2023-03-26T23:11:29.998Z,99081.00
2023-03-26T23:14:06.406Z,99075.00
2023-03-26T23:16:43.134Z,99069.60
2023-03-26T23:19:19.551Z,99070.40
2023-03-26T23:21:55.962Z,99065.40
2023-03-26T23:24:33.071Z,99066.60
2023-03-26T23:27:09.742Z,99065.60
2023-03-26T23:29:48.112Z,99062.60
2023-03-26T23:32:25.752Z,99066.80
2023-03-26T23:35:02.190Z,99061.60
2023-03-26T23:37:38.448Z,99055.40
2023-03-26T23:40:20.635Z,99060.80
2023-03-26T23:42:57.690Z,99059.60
2023-03-26T23:45:34.976Z,99063.60
2023-03-26T23:48:14.220Z,99065.60
2023-03-26T23:50:53.067Z,99061.40
2023-03-26T23:53:41.058Z,99062.60
2023-03-26T23:56:20.406Z,99060.40
2023-03-26T23:58:59.768Z,99058.00
